Paxton, Indiana
Current Conditions -  °F | °C
As of 11:35 AM on Friday 19 Dec 2014 (Local Time) from KRSV Reporting Station
Scattered Clouds Scattered Clouds  
Wind Chill: 26°   Ceiling: Unl
Heat Index: 31°   Visibility: 10mi
Dew Point: 24°   Wind: 5mph
Humidity: 74%   Direction: 60°ENE
Pressure: 30.34"   Gusts: NA
Location:  39.02°N, 87.39°W
Report Text: KRSV 191635Z AUTO 06004KT 10SM SCT016 00/M05 A3034 RMK AO2 T10051047
Loading
Personal Weather Stations






























Interactive Weather Map New forecast layout! Learn more

10-Day Weather Forecast

Advertisements
Track Severe Weather on mobile